ESNK/KRF METAR and TAF weather

Enter ICAO airport designator
Station Type Date Time Source
ESNK METAR 2022/06/30 01:50 UTC NOAA

ESNK 300150Z AUTO VRB02KT 6000 NCD 17/17 Q1019


Station Type Date Time Source
ESNK Decoded METAR 2022/06/30 01:50 UTC NOAA

Kramfors Flygplats, Sweden (ESNK) 63-03N 017-46E 19M
Jun 29, 2022 - 09:50 PM EDT / 2022.06.30 0150 UTC
Wind: Variable at 2 MPH (2 KT):0
Visibility: 3 mile(s):0
Temperature: 62 F (17 C)
Dew Point: 62 F (17 C)
Relative Humidity: 100%
Pressure (altimeter): 30.09 in. Hg (1019 hPa)
ob: ESNK 300150Z AUTO VRB02KT 6000 NCD 17/17 Q1019
cycle: 2

Station Type Date Time Source
ESNK TAF 2017/12/15 06:00 UTC NOAA

TAF
AMD ESNK 150654Z 1506/1521 35005KT 6000 -SN BKN016
TEMPO 1506/1521 2000 SN SG VV009

Example: see airport list